Time;durP1;ratioP1;P1;durP2;ratioP2;P2;SDS_P1;SDS_P2;PMS_P1;PMS_P2;Temp;Humidity;BMP_temperature;BMP_pressure;BME280_temperature;BME280_humidity;BME280_pressure;Samples;Min_cycle;Max_cycle;Signal;HPM_P1;HPM_P2
2022/09/20 00:02:10;;;;;;;;;;;;;;;68.09;0.00;100477.28;5103358;28;20364;-66
2022/09/20 00:04:36;;;;;;;;;;;;;;;69.65;0.00;100482.09;5109005;28;19919;-66
2022/09/20 00:07:02;;;;;;;;;;;;;;;70.82;0.00;100481.88;5105417;28;20303;-67
2022/09/20 00:09:29;;;;;;;;;;;;;;;68.14;0.00;100478.97;5105980;28;19924;-66
2022/09/20 00:11:55;;;;;;;;;;;;;;;68.28;0.00;100482.50;5105498;28;19962;-67
2022/09/20 00:14:21;;;;;;;;;;;;;;;70.60;0.00;100487.22;5101167;28;19997;-65
2022/09/20 00:16:48;;;;;;;;;;;;;;;70.70;0.00;100484.50;5106656;28;19924;-64
2022/09/20 00:19:17;;;;;;;;;;;;;;;70.50;0.00;100489.91;5111417;28;19920;-66
2022/09/20 00:21:43;;;;;;;;;;;;;;;69.30;0.00;100486.16;5105853;28;19920;-66
2022/09/20 00:24:09;;;;;;;;;;;;;;;70.39;0.00;100482.88;5111580;28;19935;-65
2022/09/20 00:26:36;;;;;;;;;;;;;;;70.63;0.00;100488.78;5112285;28;20434;-67
2022/09/20 00:29:04;;;;;;;;;;;;;;;70.56;0.00;100490.06;5075244;28;20301;-68
2022/09/20 00:31:30;;;;;;;;;;;;;;;66.66;0.00;100483.19;5106506;27;19923;-61
2022/09/20 00:36:43;;;;;;;;;;;;;;;66.96;0.00;100474.84;5109430;28;19920;-64
2022/09/20 00:39:10;;;;;;;;;;;;;;;66.39;0.00;100484.13;5101751;28;19963;-63
2022/09/20 00:41:36;;;;;;;;;;;;;;;66.69;0.00;100487.75;5099530;28;20006;-63
2022/09/20 00:44:22;;;;;;;;;;;;;;;67.88;0.00;100475.69;5100766;28;19923;-65
2022/09/20 00:46:50;;;;;;;;;;;;;;;69.26;0.00;100483.03;5104043;28;20335;-63
2022/09/20 00:49:19;;;;;;;;;;;;;;;68.76;0.00;100482.78;5101046;27;19959;-63
2022/09/20 00:51:47;;;;;;;;;;;;;;;68.20;0.00;100482.91;5108730;27;19920;-62
2022/09/20 00:54:15;;;;;;;;;;;;;;;67.46;0.00;100484.41;5111532;27;20576;-62
2022/09/20 00:56:42;;;;;;;;;;;;;;;66.76;0.00;100491.75;5105320;28;20253;-63
2022/09/20 00:59:20;;;;;;;;;;;;;;;66.92;0.00;100474.69;5102449;28;20004;-62
2022/09/20 01:01:51;;;;;;;;;;;;;;;65.82;0.00;100477.69;5101124;28;19924;-64
2022/09/20 01:04:20;;;;;;;;;;;;;;;65.15;0.00;100486.16;5102523;28;19927;-63
2022/09/20 01:06:48;;;;;;;;;;;;;;;62.65;0.59;100479.28;5101568;28;19973;-62
2022/09/20 01:09:14;;;;;;;;;;;;;;;60.15;1.48;100482.88;5099861;27;19920;-62
2022/09/20 01:11:41;;;;;;;;;;;;;;;58.17;1.51;100477.75;5097892;28;19920;-61
2022/09/20 01:14:08;;;;;;;;;;;;;;;56.27;3.00;100475.41;5098503;28;19927;-63
2022/09/20 01:16:35;;;;;;;;;;;;;;;56.32;2.12;100481.00;5102117;28;20349;-66
2022/09/20 01:19:03;;;;;;;;;;;;;;;56.05;2.42;100474.94;5103343;28;19920;-64
2022/09/20 01:21:29;;;;;;;;;;;;;;;55.54;3.19;100480.38;5096210;28;19927;-63
2022/09/20 01:24:12;;;;;;;;;;;;;;;55.20;3.30;100478.72;5101826;28;19923;-62
2022/09/20 01:26:41;;;;;;;;;;;;;;;55.14;2.57;100481.84;5096874;28;19928;-62
2022/09/20 01:29:22;;;;;;;;;;;;;;;54.93;3.80;100480.47;5100426;27;20274;-63
2022/09/20 01:31:52;;;;;;;;;;;;;;;54.79;4.21;100479.91;5100581;27;19920;-63
2022/09/20 01:34:27;;;;;;;;;;;;;;;54.83;4.69;100475.25;5098107;27;19924;-62
2022/09/20 01:36:57;;;;;;;;;;;;;;;54.62;4.60;100474.63;5100237;28;20388;-64
2022/09/20 01:39:23;;;;;;;;;;;;;;;54.44;4.08;100479.47;5101701;27;20358;-64
2022/09/20 01:41:56;;;;;;;;;;;;;;;54.30;4.57;100475.16;5104901;27;19924;-66
2022/09/20 01:44:41;;;;;;;;;;;;;;;54.06;4.18;100470.66;5099101;28;19955;-62
2022/09/20 01:47:14;;;;;;;;;;;;;;;53.73;4.62;100466.63;5102900;28;20491;-62
2022/09/20 01:49:44;;;;;;;;;;;;;;;53.49;4.19;100467.06;5097499;28;19970;-62
2022/09/20 01:52:28;;;;;;;;;;;;;;;53.40;4.09;100463.34;5102354;28;19927;-62
2022/09/20 01:55:10;;;;;;;;;;;;;;;53.20;4.85;100467.09;5101406;28;19927;-63
2022/09/20 01:57:50;;;;;;;;;;;;;;;53.06;5.04;100472.22;5095792;28;19920;-63
2022/09/20 02:00:26;;;;;;;;;;;;;;;52.96;5.01;100476.16;5107554;27;19926;-63
2022/09/20 02:03:16;;;;;;;;;;;;;;;52.75;4.57;100473.28;5106859;28;20377;-62
2022/09/20 02:05:53;;;;;;;;;;;;;;;52.57;4.91;100477.16;5093947;28;19920;-62
2022/09/20 02:08:31;;;;;;;;;;;;;;;52.38;4.82;100475.25;5091859;28;19931;-62
2022/09/20 02:11:17;;;;;;;;;;;;;;;52.30;5.25;100476.50;5108384;28;20328;-62
2022/09/20 02:13:53;;;;;;;;;;;;;;;52.21;4.95;100466.94;5108783;28;19920;-62
2022/09/20 02:16:38;;;;;;;;;;;;;;;52.11;5.33;100468.78;5110187;28;19939;-60
2022/09/20 02:19:04;;;;;;;;;;;;;;;52.07;5.15;100476.25;5109095;28;19920;-69
2022/09/20 02:21:39;;;;;;;;;;;;;;;51.91;4.99;100472.38;5108954;28;19931;-67
2022/09/20 02:24:05;;;;;;;;;;;;;;;51.80;5.41;100463.94;5108159;28;20377;-66
2022/09/20 02:26:34;;;;;;;;;;;;;;;51.74;5.49;100480.66;5109551;28;20294;-66
2022/09/20 02:29:26;;;;;;;;;;;;;;;51.58;5.31;100474.63;5108971;28;19924;-67
2022/09/20 02:31:59;;;;;;;;;;;;;;;51.47;5.22;100474.88;5104115;27;20385;-64
2022/09/20 02:34:44;;;;;;;;;;;;;;;51.37;5.51;100482.47;5102144;27;19931;-68
2022/09/20 02:37:21;;;;;;;;;;;;;;;51.38;5.44;100484.03;5108767;28;19951;-67
2022/09/20 02:39:53;;;;;;;;;;;;;;;51.30;5.73;100483.09;5105739;28;19919;-66
2022/09/20 02:42:32;;;;;;;;;;;;;;;51.30;5.39;100489.66;5109149;28;20003;-66
2022/09/20 02:45:04;;;;;;;;;;;;;;;51.19;6.38;100489.13;5107421;28;19962;-65
2022/09/20 02:47:31;;;;;;;;;;;;;;;51.18;5.38;100493.34;5106876;28;20569;-65
2022/09/20 02:50:11;;;;;;;;;;;;;;;51.02;5.59;100498.09;5110020;28;19949;-66
2022/09/20 02:52:44;;;;;;;;;;;;;;;50.92;5.82;100514.31;5108475;28;20026;-67
2022/09/20 02:55:24;;;;;;;;;;;;;;;50.81;5.28;100512.38;5104325;28;19928;-66
2022/09/20 02:58:29;;;;;;;;;;;;;;;50.83;5.87;100520.53;5107580;28;20382;-68
2022/09/20 03:01:07;;;;;;;;;;;;;;;50.55;6.01;100513.06;5018014;28;19991;-67
2022/09/20 03:03:36;;;;;;;;;;;;;;;50.53;5.63;100520.75;5020152;28;19975;-67
2022/09/20 03:06:02;;;;;;;;;;;;;;;50.48;6.06;100526.06;5047669;28;19920;-66
2022/09/20 03:08:49;;;;;;;;;;;;;;;50.48;6.24;100534.75;5103648;28;20377;-66
2022/09/20 03:11:22;;;;;;;;;;;;;;;50.44;5.71;100542.94;5102133;28;20320;-66
2022/09/20 03:13:57;;;;;;;;;;;;;;;50.40;5.59;100541.69;5103107;28;19984;-68
2022/09/20 03:16:30;;;;;;;;;;;;;;;50.38;5.63;100548.03;5104211;28;20293;-66
2022/09/20 03:19:14;;;;;;;;;;;;;;;50.42;6.23;100553.50;5105911;28;20011;-67
2022/09/20 03:22:00;;;;;;;;;;;;;;;50.41;5.99;100554.84;5101073;28;20016;-66
2022/09/20 03:24:33;;;;;;;;;;;;;;;50.38;6.02;100561.72;5112821;27;19920;-67
2022/09/20 03:27:23;;;;;;;;;;;;;;;50.31;6.41;100562.34;5115237;27;19962;-66
2022/09/20 03:29:58;;;;;;;;;;;;;;;50.11;5.84;100558.66;5096146;28;20369;-66
2022/09/20 03:32:45;;;;;;;;;;;;;;;49.97;5.80;100564.88;5106221;27;20401;-66
2022/09/20 03:35:28;;;;;;;;;;;;;;;49.99;6.47;100576.66;5108724;28;20293;-67
2022/09/20 03:38:13;;;;;;;;;;;;;;;49.89;6.63;100577.03;5108121;28;19920;-67
2022/09/20 03:40:57;;;;;;;;;;;;;;;49.49;6.78;100593.22;5107785;28;19923;-67
2022/09/20 03:43:42;;;;;;;;;;;;;;;49.64;6.37;100595.69;5104496;28;19930;-66
2022/09/20 03:46:25;;;;;;;;;;;;;;;50.05;6.34;100594.75;5095882;28;19943;-65
2022/09/20 03:48:51;;;;;;;;;;;;;;;50.27;6.59;100608.91;5104062;28;20011;-66
2022/09/20 03:51:22;;;;;;;;;;;;;;;50.11;6.55;100601.25;5097749;28;20008;-66
2022/09/20 03:53:51;;;;;;;;;;;;;;;50.13;5.86;100607.28;5108345;28;20496;-66
2022/09/20 03:56:17;;;;;;;;;;;;;;;50.01;6.05;100611.63;5099084;28;19916;-66
2022/09/20 03:58:56;;;;;;;;;;;;;;;49.85;5.97;100611.25;5103788;28;19943;-65
2022/09/20 04:01:34;;;;;;;;;;;;;;;49.93;6.01;100613.53;5105612;28;19919;-66
2022/09/20 04:04:07;;;;;;;;;;;;;;;49.68;6.43;100613.53;5107127;28;19919;-66
2022/09/20 04:06:52;;;;;;;;;;;;;;;49.63;6.48;100617.25;5087633;28;19963;-64
2022/09/20 04:09:24;;;;;;;;;;;;;;;49.75;6.43;100621.63;5101916;28;19920;-65
2022/09/20 04:12:02;;;;;;;;;;;;;;;49.61;6.58;100617.78;5104419;28;20029;-64
2022/09/20 04:14:38;;;;;;;;;;;;;;;49.67;6.02;100626.41;5102066;28;19920;-65
2022/09/20 04:17:27;;;;;;;;;;;;;;;49.59;6.39;100620.44;5102484;28;20365;-64
2022/09/20 04:20:19;;;;;;;;;;;;;;;49.59;6.70;100616.78;5065373;28;19958;-64
2022/09/20 04:22:50;;;;;;;;;;;;;;;49.50;6.80;100620.00;5081132;28;19946;-65
2022/09/20 04:25:19;;;;;;;;;;;;;;;49.26;6.98;100621.50;5100762;28;19920;-64
2022/09/20 04:27:56;;;;;;;;;;;;;;;49.15;6.96;100618.72;5111693;28;20018;-66
2022/09/20 04:30:31;;;;;;;;;;;;;;;48.96;6.81;100615.72;5090316;28;20351;-66
2022/09/20 04:33:04;;;;;;;;;;;;;;;48.77;7.13;100611.91;5104096;27;19926;-65
2022/09/20 04:38:19;;;;;;;;;;;;;;;48.48;6.85;100615.44;5108842;28;19924;-64
2022/09/20 04:41:04;;;;;;;;;;;;;;;48.39;7.44;100613.66;5090467;28;19923;-67
2022/09/20 04:43:50;;;;;;;;;;;;;;;48.39;7.01;100619.44;5108310;28;19920;-66
2022/09/20 04:46:19;;;;;;;;;;;;;;;48.37;7.00;100610.53;5097163;27;20374;-65
2022/09/20 04:48:48;;;;;;;;;;;;;;;48.31;7.22;100612.69;5112517;27;19927;-65
2022/09/20 04:51:30;;;;;;;;;;;;;;;48.23;7.54;100603.78;5096978;27;19926;-66
2022/09/20 04:54:15;;;;;;;;;;;;;;;48.00;7.86;100611.72;5111921;27;19916;-67
2022/09/20 04:56:48;;;;;;;;;;;;;;;48.03;7.63;100610.66;5090935;28;19924;-67
2022/09/20 04:59:40;;;;;;;;;;;;;;;48.09;7.45;100613.50;5106559;28;20408;-67
2022/09/20 05:02:20;;;;;;;;;;;;;;;48.18;7.12;100610.34;5066810;28;19924;-66
2022/09/20 05:05:05;;;;;;;;;;;;;;;48.18;7.31;100615.31;5091554;28;19920;-67
2022/09/20 05:07:41;;;;;;;;;;;;;;;48.09;7.30;100617.19;5111575;28;19923;-67
2022/09/20 05:10:30;;;;;;;;;;;;;;;47.92;7.97;100607.03;5101298;28;19920;-67
2022/09/20 05:13:04;;;;;;;;;;;;;;;47.65;8.11;100615.19;5106397;27;20005;-67
2022/09/20 05:15:42;;;;;;;;;;;;;;;47.79;7.57;100624.84;5091937;28;19924;-67
2022/09/20 05:18:26;;;;;;;;;;;;;;;47.77;7.61;100630.38;5086614;28;19920;-67
2022/09/20 05:21:14;;;;;;;;;;;;;;;47.79;7.88;100624.84;5115511;27;19928;-66
2022/09/20 05:23:52;;;;;;;;;;;;;;;47.79;8.01;100628.53;5109720;28;19927;-66
2022/09/20 05:26:47;;;;;;;;;;;;;;;47.89;8.20;100626.16;5110103;28;20010;-66
2022/09/20 05:29:14;;;;;;;;;;;;;;;47.75;7.68;100630.09;5107879;28;19920;-66
2022/09/20 05:31:46;;;;;;;;;;;;;;;47.75;8.47;100632.97;5096836;28;20308;-67
2022/09/20 05:34:19;;;;;;;;;;;;;;;47.78;8.19;100634.81;5104943;28;19927;-67
2022/09/20 05:36:55;;;;;;;;;;;;;;;47.42;8.08;100640.34;5108295;28;20370;-66
2022/09/20 05:39:32;;;;;;;;;;;;;;;47.23;8.78;100647.94;5091953;27;19915;-67
2022/09/20 05:42:17;;;;;;;;;;;;;;;47.62;8.60;100647.16;5109604;28;19966;-68
2022/09/20 05:44:57;;;;;;;;;;;;;;;47.87;8.05;100657.59;5102467;28;19977;-66
2022/09/20 05:47:41;;;;;;;;;;;;;;;47.64;8.26;100658.94;5110148;28;20309;-66
2022/09/20 05:50:16;;;;;;;;;;;;;;;47.58;8.31;100658.91;5090712;28;20401;-67
2022/09/20 05:52:56;;;;;;;;;;;;;;;47.47;8.82;100656.81;5111350;28;19973;-68
2022/09/20 05:55:41;;;;;;;;;;;;;;;47.12;9.28;100660.19;5108674;27;19926;-67
2022/09/20 05:58:26;;;;;;;;;;;;;;;47.14;9.28;100669.13;5086126;28;20027;-67
2022/09/20 06:01:13;;;;;;;;;;;;;;;47.37;9.24;100669.13;5109359;28;20481;-67
2022/09/20 06:03:53;;;;;;;;;;;;;;;47.54;9.22;100664.16;5090485;28;19928;-67
2022/09/20 06:06:21;;;;;;;;;;;;;;;46.92;9.02;100674.81;5101489;27;19920;-66
2022/09/20 06:08:58;;;;;;;;;;;;;;;47.02;9.61;100672.47;5106593;28;19924;-66
2022/09/20 06:11:38;;;;;;;;;;;;;;;47.29;9.25;100673.84;5106954;28;19955;-66
2022/09/20 06:14:29;;;;;;;;;;;;;;;47.46;9.29;100677.50;5110061;28;19943;-66
2022/09/20 06:16:56;;;;;;;;;;;;;;;47.21;9.36;100668.59;5104180;28;19935;-66
2022/09/20 06:19:35;;;;;;;;;;;;;;;47.25;9.54;100668.34;5106485;28;19920;-67
2022/09/20 06:22:08;;;;;;;;;;;;;;;47.42;8.89;100666.25;5085713;28;19923;-67
2022/09/20 06:24:42;;;;;;;;;;;;;;;47.33;9.86;100675.13;5112354;28;19955;-66
2022/09/20 06:27:14;;;;;;;;;;;;;;;47.44;9.47;100675.16;5110301;28;19970;-66
2022/09/20 06:29:44;;;;;;;;;;;;;;;47.40;9.53;100674.63;5091434;28;19928;-66
2022/09/20 06:32:16;;;;;;;;;;;;;;;47.50;9.05;100673.06;5107963;28;19942;-65
2022/09/20 06:34:42;;;;;;;;;;;;;;;47.46;9.75;100683.25;5091753;28;19924;-66
2022/09/20 06:42:46;;;;;;;;;;;;;;;47.28;9.43;100680.91;5104332;28;19928;-65
2022/09/20 06:45:12;;;;;;;;;;;;;;;47.27;9.40;100677.25;5089933;28;20057;-66
2022/09/20 06:47:41;;;;;;;;;;;;;;;47.18;9.09;100686.91;5089949;28;20015;-66
2022/09/20 06:50:14;;;;;;;;;;;;;;;46.85;9.43;100684.72;5088471;28;19924;-67
2022/09/20 06:52:41;;;;;;;;;;;;;;;47.01;9.64;100691.03;5106051;28;19928;-67
2022/09/20 06:55:12;;;;;;;;;;;;;;;47.07;9.73;100686.09;5110806;28;20023;-68
2022/09/20 06:57:39;;;;;;;;;;;;;;;47.02;9.73;100683.97;5107973;28;19920;-67
2022/09/20 07:00:09;;;;;;;;;;;;;;;46.67;9.77;100688.03;5110668;28;19924;-67
2022/09/20 07:02:35;;;;;;;;;;;;;;;46.97;9.58;100686.31;5108309;28;20014;-67
2022/09/20 07:05:01;;;;;;;;;;;;;;;47.11;9.82;100692.38;5106345;28;19931;-64
2022/09/20 07:07:27;;;;;;;;;;;;;;;47.12;9.42;100693.94;5110054;27;19920;-66
2022/09/20 07:09:54;;;;;;;;;;;;;;;47.13;9.67;100684.81;5102941;28;19993;-66
2022/09/20 07:12:20;;;;;;;;;;;;;;;46.91;10.26;100684.75;5102299;28;20010;-67
2022/09/20 07:14:46;;;;;;;;;;;;;;;46.89;9.58;100691.03;5105742;28;19920;-66
2022/09/20 07:17:13;;;;;;;;;;;;;;;46.92;9.65;100687.09;5100897;28;19920;-65
2022/09/20 07:19:39;;;;;;;;;;;;;;;46.73;9.88;100685.19;5104570;28;19926;-65
2022/09/20 07:22:06;;;;;;;;;;;;;;;46.93;9.78;100688.69;5066779;28;20301;-65
2022/09/20 07:24:32;;;;;;;;;;;;;;;46.92;10.12;100686.31;5104694;28;19920;-68
2022/09/20 07:27:00;;;;;;;;;;;;;;;46.92;10.20;100692.06;5101021;28;19912;-66
2022/09/20 07:29:27;;;;;;;;;;;;;;;46.96;10.26;100689.72;5102983;28;19924;-66
2022/09/20 07:31:53;;;;;;;;;;;;;;;46.99;10.26;100687.91;5106997;28;19916;-66
2022/09/20 07:34:19;;;;;;;;;;;;;;;46.92;9.62;100686.31;5093859;28;20365;-66
2022/09/20 07:36:46;;;;;;;;;;;;;;;46.99;9.96;100690.78;5097968;28;19920;-66
2022/09/20 07:39:12;;;;;;;;;;;;;;;47.03;9.61;100688.41;5104631;28;19955;-65
2022/09/20 07:41:39;;;;;;;;;;;;;;;46.94;9.64;100695.22;5102366;28;19915;-67
2022/09/20 07:44:20;;;;;;;;;;;;;;;46.79;9.71;100706.16;5097175;28;20355;-66
2022/09/20 07:46:47;;;;;;;;;;;;;;;46.05;10.66;100707.84;5098253;28;20338;-66
2022/09/20 07:49:14;;;;;;;;;;;;;;;46.16;10.71;100707.13;5104407;28;19924;-65
2022/09/20 07:51:40;;;;;;;;;;;;;;;46.24;10.07;100711.09;5105310;28;19923;-65
2022/09/20 07:54:06;;;;;;;;;;;;;;;46.31;10.75;100719.22;5096879;28;19924;-66
2022/09/20 07:56:33;;;;;;;;;;;;;;;46.28;10.66;100714.50;5109702;28;19965;-66
2022/09/20 07:58:59;;;;;;;;;;;;;;;46.31;10.64;100718.44;5106029;28;20349;-66
2022/09/20 08:01:25;;;;;;;;;;;;;;;46.40;10.65;100717.47;5112681;28;19928;-66
2022/09/20 08:03:51;;;;;;;;;;;;;;;46.25;10.38;100711.88;5120694;28;19915;-67
2022/09/20 08:06:20;;;;;;;;;;;;;;;46.15;10.91;100717.06;5099826;28;19943;-65
2022/09/20 08:08:46;;;;;;;;;;;;;;;46.20;10.64;100713.44;5123764;28;19920;-66
2022/09/20 08:11:13;;;;;;;;;;;;;;;46.04;10.39;100711.22;5110117;28;19919;-66
2022/09/20 08:13:40;;;;;;;;;;;;;;;45.87;10.57;100724.66;5108548;28;19923;-66
2022/09/20 08:16:07;;;;;;;;;;;;;;;45.93;10.64;100716.88;5125047;28;19927;-66
2022/09/20 08:18:34;;;;;;;;;;;;;;;45.91;10.56;100720.25;5099519;28;19964;-65
2022/09/20 08:21:07;;;;;;;;;;;;;;;45.64;10.91;100718.75;5119670;28;19920;-66
2022/09/20 08:23:37;;;;;;;;;;;;;;;46.00;10.56;100717.19;5115791;28;19927;-65
2022/09/20 08:26:04;;;;;;;;;;;;;;;46.05;10.65;100719.34;5101566;28;19926;-66
2022/09/20 08:28:31;;;;;;;;;;;;;;;45.95;10.66;100720.00;5126200;28;20378;-66
2022/09/20 08:31:04;;;;;;;;;;;;;;;45.84;10.92;100728.56;5105437;28;20388;-67
2022/09/20 08:33:31;;;;;;;;;;;;;;;45.83;10.97;100721.25;5116282;28;20305;-65
2022/09/20 08:35:57;;;;;;;;;;;;;;;45.77;11.48;100724.84;5097786;28;19927;-66
2022/09/20 08:38:26;;;;;;;;;;;;;;;45.71;11.55;100726.13;5109322;28;19943;-66
2022/09/20 08:40:57;;;;;;;;;;;;;;;45.67;11.49;100737.06;5104557;28;19923;-66
2022/09/20 08:43:27;;;;;;;;;;;;;;;45.59;11.55;100733.81;5116035;27;19920;-66
2022/09/20 08:45:55;;;;;;;;;;;;;;;45.53;11.62;100741.59;5124966;27;20391;-66
2022/09/20 08:48:26;;;;;;;;;;;;;;;45.43;11.57;100741.00;5084923;27;20428;-66
2022/09/20 08:50:52;;;;;;;;;;;;;;;45.39;11.17;100737.53;5125328;27;19993;-66
2022/09/20 08:53:19;;;;;;;;;;;;;;;45.39;11.85;100734.66;5115450;27;19920;-65
2022/09/20 08:55:46;;;;;;;;;;;;;;;45.01;11.97;100738.69;5109945;27;19924;-67
2022/09/20 08:58:13;;;;;;;;;;;;;;;44.70;12.09;100732.81;5129595;27;19956;-66
2022/09/20 09:00:43;;;;;;;;;;;;;;;45.14;11.03;100733.34;5104044;27;20052;-66
2022/09/20 09:03:15;;;;;;;;;;;;;;;45.32;11.16;100738.00;5122700;27;19942;-67
2022/09/20 09:05:54;;;;;;;;;;;;;;;45.45;11.48;100731.88;5103299;28;19968;-66
2022/09/20 09:08:20;;;;;;;;;;;;;;;45.15;11.87;100739.88;5112659;28;19920;-66
2022/09/20 09:10:55;;;;;;;;;;;;;;;45.23;11.44;100743.88;5100658;28;19915;-66
2022/09/20 09:13:24;;;;;;;;;;;;;;;45.38;11.63;100738.06;5106252;28;19927;-66
2022/09/20 09:15:54;;;;;;;;;;;;;;;45.42;11.34;100741.47;5109225;28;19922;-66
2022/09/20 09:18:20;;;;;;;;;;;;;;;45.43;11.14;100737.34;5098771;28;19924;-65
2022/09/20 09:20:46;;;;;;;;;;;;;;;45.44;11.39;100739.69;5110803;28;20324;-66
2022/09/20 09:23:24;;;;;;;;;;;;;;;45.36;11.50;100749.25;5112597;27;19925;-66
2022/09/20 09:25:51;;;;;;;;;;;;;;;45.33;11.55;100753.94;5108162;27;20393;-66
2022/09/20 09:28:22;;;;;;;;;;;;;;;45.31;11.13;100750.00;5128379;27;19922;-67
2022/09/20 09:30:48;;;;;;;;;;;;;;;45.08;11.37;100752.59;5105616;27;19927;-66
2022/09/20 09:33:21;;;;;;;;;;;;;;;45.22;11.37;100748.03;5121409;27;19994;-66
2022/09/20 09:35:52;;;;;;;;;;;;;;;45.27;11.49;100752.31;5101783;28;20339;-65
2022/09/20 09:38:20;;;;;;;;;;;;;;;45.33;11.18;100745.31;5112064;28;20022;-65
2022/09/20 09:40:56;;;;;;;;;;;;;;;45.27;11.77;100758.06;5104732;27;19920;-66
2022/09/20 09:43:27;;;;;;;;;;;;;;;45.20;11.67;100760.03;5115389;27;20401;-65
2022/09/20 09:45:54;;;;;;;;;;;;;;;45.07;11.48;100756.78;5123744;27;19927;-65
2022/09/20 09:48:21;;;;;;;;;;;;;;;44.99;11.97;100760.56;5101925;27;19920;-65
2022/09/20 09:50:47;;;;;;;;;;;;;;;44.93;12.21;100754.78;5125362;27;20365;-65
2022/09/20 09:53:19;;;;;;;;;;;;;;;44.78;12.45;100743.34;5111652;27;19922;-66
2022/09/20 09:56:10;;;;;;;;;;;;;;;44.70;12.13;100750.78;5108575;27;19927;-65
2022/09/20 09:58:56;;;;;;;;;;;;;;;44.80;12.34;100742.84;5087074;28;19997;-66
2022/09/20 10:01:28;;;;;;;;;;;;;;;44.92;11.67;100738.84;5114877;27;19920;-66
2022/09/20 10:04:15;;;;;;;;;;;;;;;44.96;11.85;100738.63;5114404;28;19927;-66
2022/09/20 10:06:54;;;;;;;;;;;;;;;44.84;12.01;100732.72;5098771;28;20343;-66
2022/09/20 10:09:38;;;;;;;;;;;;;;;44.70;11.72;100733.59;5105020;28;19928;-66
2022/09/20 10:12:11;;;;;;;;;;;;;;;44.62;11.95;100737.41;5126413;27;19922;-67
2022/09/20 10:15:10;;;;;;;;;;;;;;;44.58;12.15;100726.94;5098106;28;20241;-66
2022/09/20 10:17:45;;;;;;;;;;;;;;;44.57;12.17;100728.22;5081985;27;19927;-66
2022/09/20 10:20:21;;;;;;;;;;;;;;;44.42;12.11;100735.28;5101371;27;20030;-66
2022/09/20 10:22:54;;;;;;;;;;;;;;;44.24;12.47;100730.59;5124858;27;19920;-66
2022/09/20 10:25:38;;;;;;;;;;;;;;;44.56;11.78;100729.53;5112145;27;19919;-66
2022/09/20 10:28:30;;;;;;;;;;;;;;;44.63;11.79;100736.91;5102901;27;19926;-66
2022/09/20 10:31:32;;;;;;;;;;;;;;;44.57;12.08;100736.03;5097784;28;19923;-65
2022/09/20 10:34:13;;;;;;;;;;;;;;;44.46;11.46;100739.50;5031981;28;20365;-66
2022/09/20 10:36:51;;;;;;;;;;;;;;;44.50;11.74;100742.19;5089730;28;20268;-66
2022/09/20 10:39:27;;;;;;;;;;;;;;;44.42;11.60;100741.81;5104885;28;19931;-66
2022/09/20 10:44:54;;;;;;;;;;;;;;;43.98;12.30;100757.00;5097935;28;19928;-66
2022/09/20 10:47:27;;;;;;;;;;;;;;;43.89;12.35;100757.13;5104443;28;19981;-67
2022/09/20 10:49:59;;;;;;;;;;;;;;;44.08;11.91;100759.75;5122479;27;19920;-66
2022/09/20 10:52:41;;;;;;;;;;;;;;;44.07;11.90;100763.91;5100776;27;19951;-66
2022/09/20 10:55:23;;;;;;;;;;;;;;;44.13;12.07;100765.59;5118387;27;20035;-65
2022/09/20 10:57:50;;;;;;;;;;;;;;;44.06;12.07;100760.25;5121430;27;19923;-67
2022/09/20 11:00:16;;;;;;;;;;;;;;;44.10;12.06;100765.81;5100507;27;19917;-67
2022/09/20 11:02:54;;;;;;;;;;;;;;;44.03;12.22;100766.22;5124134;27;19920;-66
2022/09/20 11:05:39;;;;;;;;;;;;;;;44.05;12.29;100769.34;5103647;28;19931;-66
2022/09/20 11:08:06;;;;;;;;;;;;;;;44.14;11.92;100754.94;5125618;27;19919;-66
2022/09/20 11:10:35;;;;;;;;;;;;;;;44.13;11.68;100761.94;5100290;27;19975;-67
2022/09/20 11:13:24;;;;;;;;;;;;;;;44.21;11.59;100766.00;5119981;27;20409;-65
2022/09/20 11:15:58;;;;;;;;;;;;;;;44.26;11.56;100773.88;5089454;27;19930;-66
2022/09/20 11:18:24;;;;;;;;;;;;;;;44.26;11.92;100779.59;5100209;27;20006;-65
2022/09/20 11:21:06;;;;;;;;;;;;;;;44.25;11.60;100778.81;5123010;27;19927;-67
2022/09/20 11:23:32;;;;;;;;;;;;;;;44.04;11.96;100773.50;5083961;28;19920;-66
2022/09/20 11:26:09;;;;;;;;;;;;;;;43.99;12.11;100778.66;5123374;27;19915;-66
2022/09/20 11:28:39;;;;;;;;;;;;;;;43.78;12.07;100779.84;5100156;27;20002;-66
2022/09/20 11:31:09;;;;;;;;;;;;;;;43.76;12.13;100782.41;5118658;27;19920;-66
2022/09/20 11:33:41;;;;;;;;;;;;;;;43.86;12.20;100789.63;5116526;27;20254;-66
2022/09/20 11:36:13;;;;;;;;;;;;;;;43.82;12.32;100785.41;5100249;27;19951;-66
2022/09/20 11:38:45;;;;;;;;;;;;;;;43.64;12.32;100790.00;5097500;28;20293;-66
2022/09/20 11:41:21;;;;;;;;;;;;;;;43.54;12.37;100794.25;5104899;28;20032;-65
2022/09/20 11:43:48;;;;;;;;;;;;;;;43.68;12.09;100793.47;5119685;27;20075;-64
2022/09/20 11:46:20;;;;;;;;;;;;;;;43.69;12.26;100794.28;5099860;27;19912;-66
2022/09/20 11:49:08;;;;;;;;;;;;;;;43.53;12.41;100783.28;5123758;27;19924;-64
2022/09/20 11:51:41;;;;;;;;;;;;;;;43.80;11.99;100791.59;5084148;28;19942;-64
2022/09/20 11:54:18;;;;;;;;;;;;;;;43.75;12.14;100792.28;5082583;28;19928;-66
2022/09/20 11:56:52;;;;;;;;;;;;;;;43.78;12.14;100796.25;5097447;28;19923;-66
2022/09/20 11:59:49;;;;;;;;;;;;;;;43.68;12.27;100795.53;5103547;28;19970;-66
2022/09/20 12:02:31;;;;;;;;;;;;;;;43.64;12.31;100806.41;5082597;28;20405;-66
2022/09/20 12:04:57;;;;;;;;;;;;;;;43.55;12.40;100803.63;5106448;28;19959;-65
2022/09/20 12:07:26;;;;;;;;;;;;;;;43.59;12.51;100812.78;5102972;28;19974;-66
2022/09/20 12:10:10;;;;;;;;;;;;;;;43.00;13.17;100813.44;5098698;28;19974;-66
2022/09/20 12:12:42;;;;;;;;;;;;;;;42.56;14.06;100824.66;5096336;28;19943;-66
2022/09/20 12:15:23;;;;;;;;;;;;;;;42.10;15.51;100829.75;5104498;28;19927;-66
2022/09/20 12:17:50;;;;;;;;;;;;;;;42.39;15.07;100827.09;5108402;28;19919;-66
2022/09/20 12:20:31;;;;;;;;;;;;;;;43.05;14.83;100827.06;5099962;28;20006;-66
2022/09/20 12:23:16;;;;;;;;;;;;;;;43.03;14.75;100825.97;5110299;28;20348;-66
2022/09/20 12:26:01;;;;;;;;;;;;;;;43.06;14.71;100827.84;5109197;28;19965;-66
2022/09/20 12:28:39;;;;;;;;;;;;;;;43.27;14.54;100829.59;5099985;28;20312;-66
2022/09/20 12:31:20;;;;;;;;;;;;;;;43.41;14.59;100819.47;5113970;28;19926;-66
2022/09/20 12:33:58;;;;;;;;;;;;;;;43.36;14.99;100828.75;5116519;28;20068;-65
2022/09/20 12:36:25;;;;;;;;;;;;;;;43.36;15.16;100835.28;5099775;28;19920;-65
2022/09/20 12:38:57;;;;;;;;;;;;;;;43.30;15.92;100836.44;5110906;28;19923;-66
2022/09/20 12:41:23;;;;;;;;;;;;;;;43.18;16.64;100837.47;5100262;28;19972;-65
2022/09/20 12:43:52;;;;;;;;;;;;;;;42.65;17.92;100838.09;5105073;28;19923;-64
2022/09/20 12:46:39;;;;;;;;;;;;;;;43.10;17.93;100839.91;5110879;28;20020;-67
2022/09/20 12:52:48;;;;;;;;;;;;;;;43.11;18.31;100847.22;5106318;28;20007;-67
2022/09/20 12:54:53;;;;;;;;;;;;;;;43.08;19.25;100845.31;5106608;28;20022;-65
2022/09/20 12:57:34;;;;;;;;;;;;;;;43.22;19.54;100846.66;5106601;28;19959;-66
2022/09/20 13:00:02;;;;;;;;;;;;;;;43.25;19.96;100851.38;5106348;28;20381;-65
2022/09/20 13:02:46;;;;;;;;;;;;;;;43.51;20.03;100860.28;5105514;28;20030;-66
2022/09/20 13:05:31;;;;;;;;;;;;;;;43.55;20.34;100863.72;5106868;28;19926;-64
2022/09/20 13:08:19;;;;;;;;;;;;;;;43.63;20.37;100873.50;5106021;27;19931;-66
2022/09/20 13:10:54;;;;;;;;;;;;;;;43.50;20.46;100876.66;5106134;28;20386;-65
2022/09/20 13:13:21;;;;;;;;;;;;;;;43.72;20.51;100879.19;5106248;28;19943;-65
2022/09/20 13:15:50;;;;;;;;;;;;;;;44.06;19.92;100872.00;5106233;27;19994;-66
2022/09/20 13:18:17;;;;;;;;;;;;;;;44.27;19.70;100872.91;5109642;28;19930;-65
2022/09/20 13:20:43;;;;;;;;;;;;;;;44.37;19.45;100877.25;5102394;28;19948;-65
2022/09/20 13:23:17;;;;;;;;;;;;;;;44.39;19.09;100880.41;5106874;28;19988;-67
2022/09/20 13:25:44;;;;;;;;;;;;;;;44.56;19.01;100881.47;5108124;28;19920;-66
2022/09/20 13:28:33;;;;;;;;;;;;;;;44.72;19.12;100879.38;5098847;28;19927;-66
2022/09/20 13:31:17;;;;;;;;;;;;;;;44.78;18.47;100885.97;5091541;28;20373;-66
2022/09/20 13:33:44;;;;;;;;;;;;;;;44.64;18.86;100889.66;5100475;28;19921;-65
2022/09/20 13:36:10;;;;;;;;;;;;;;;44.55;19.48;100894.25;5127984;27;20381;-66